sensor_id;sensor_type;location;lat;lon;timestamp;pressure;altitude;pressure_sealevel;temperature;humidity
69402;BME280;56589;51.992;5.924;2022-09-12T00:00:37;101225.97;;;14.71;73.91
69402;BME280;56589;51.992;5.924;2022-09-12T00:03:03;101221.50;;;14.71;74.28
69402;BME280;56589;51.992;5.924;2022-09-12T00:05:29;101225.97;;;14.71;73.63
69402;BME280;56589;51.992;5.924;2022-09-12T00:07:55;101216.59;;;14.67;73.78
69402;BME280;56589;51.992;5.924;2022-09-12T00:10:23;101218.41;;;14.66;73.88
69402;BME280;56589;51.992;5.924;2022-09-12T00:12:49;101229.06;;;14.65;73.55
69402;BME280;56589;51.992;5.924;2022-09-12T00:15:16;101230.84;;;14.64;73.55
69402;BME280;56589;51.992;5.924;2022-09-12T00:17:43;101221.13;;;14.65;73.72
69402;BME280;56589;51.992;5.924;2022-09-12T00:20:09;101220.28;;;14.64;73.42
69402;BME280;56589;51.992;5.924;2022-09-12T00:22:36;101212.47;;;14.63;73.62
69402;BME280;56589;51.992;5.924;2022-09-12T00:25:02;101214.28;;;14.62;74.12
69402;BME280;56589;51.992;5.924;2022-09-12T00:27:32;101209.22;;;14.59;73.75
69402;BME280;56589;51.992;5.924;2022-09-12T00:29:58;101210.38;;;14.55;74.09
69402;BME280;56589;51.992;5.924;2022-09-12T00:32:24;101218.53;;;14.52;74.19
69402;BME280;56589;51.992;5.924;2022-09-12T00:34:49;101206.38;;;14.49;73.95
69402;BME280;56589;51.992;5.924;2022-09-12T00:37:15;101209.47;;;14.43;74.49
69402;BME280;56589;51.992;5.924;2022-09-12T00:39:41;101206.34;;;14.38;74.14
69402;BME280;56589;51.992;5.924;2022-09-12T00:42:08;101207.41;;;14.36;74.62
69402;BME280;56589;51.992;5.924;2022-09-12T00:44:49;101208.38;;;14.35;74.78
69402;BME280;56589;51.992;5.924;2022-09-12T00:47:20;101198.13;;;14.30;74.64
69402;BME280;56589;51.992;5.924;2022-09-12T00:49:52;101200.78;;;14.30;74.76
69402;BME280;56589;51.992;5.924;2022-09-12T00:52:25;101199.41;;;14.24;74.79
69402;BME280;56589;51.992;5.924;2022-09-12T00:55:02;101189.91;;;14.22;74.82
69402;BME280;56589;51.992;5.924;2022-09-12T00:57:35;101195.44;;;14.19;74.73
69402;BME280;56589;51.992;5.924;2022-09-12T01:00:14;101187.63;;;14.17;75.08
69402;BME280;56589;51.992;5.924;2022-09-12T01:02:44;101190.34;;;14.16;75.34
69402;BME280;56589;51.992;5.924;2022-09-12T01:05:13;101182.78;;;14.11;74.94
69402;BME280;56589;51.992;5.924;2022-09-12T01:07:40;101184.69;;;14.09;75.16
69402;BME280;56589;51.992;5.924;2022-09-12T01:10:08;101184.91;;;14.06;75.19
69402;BME280;56589;51.992;5.924;2022-09-12T01:12:36;101182.38;;;14.04;75.54
69402;BME280;56589;51.992;5.924;2022-09-12T01:15:06;101169.50;;;14.00;75.42
69402;BME280;56589;51.992;5.924;2022-09-12T01:17:42;101169.72;;;13.97;75.42
69402;BME280;56589;51.992;5.924;2022-09-12T01:27:17;101178.19;;;13.89;75.86
69402;BME280;56589;51.992;5.924;2022-09-12T01:30:16;101167.97;;;13.85;76.08
69402;BME280;56589;51.992;5.924;2022-09-12T01:32:53;101169.03;;;13.82;76.53
69402;BME280;56589;51.992;5.924;2022-09-12T01:35:35;101159.44;;;13.81;76.10
69402;BME280;56589;51.992;5.924;2022-09-12T01:38:13;101159.56;;;13.80;76.25
69402;BME280;56589;51.992;5.924;2022-09-12T01:40:53;101155.19;;;13.78;75.66
69402;BME280;56589;51.992;5.924;2022-09-12T01:43:30;101152.69;;;13.77;76.19
69402;BME280;56589;51.992;5.924;2022-09-12T01:46:08;101151.84;;;13.76;76.49
69402;BME280;56589;51.992;5.924;2022-09-12T01:48:44;101138.13;;;13.71;76.07
69402;BME280;56589;51.992;5.924;2022-09-12T01:51:20;101142.78;;;13.68;76.52
69402;BME280;56589;51.992;5.924;2022-09-12T01:53:53;101134.25;;;13.64;76.31
69402;BME280;56589;51.992;5.924;2022-09-12T01:56:26;101129.28;;;13.60;76.35
69402;BME280;56589;51.992;5.924;2022-09-12T01:59:01;101135.53;;;13.59;76.57
69402;BME280;56589;51.992;5.924;2022-09-12T02:01:35;101133.97;;;13.56;76.66
69402;BME280;56589;51.992;5.924;2022-09-12T02:04:11;101132.16;;;13.57;76.66
69402;BME280;56589;51.992;5.924;2022-09-12T02:06:45;101138.16;;;13.59;76.93
69402;BME280;56589;51.992;5.924;2022-09-12T02:09:18;101128.34;;;13.61;76.88
69402;BME280;56589;51.992;5.924;2022-09-12T02:11:49;101117.06;;;13.59;76.40
69402;BME280;56589;51.992;5.924;2022-09-12T02:14:22;101110.81;;;13.60;76.89
69402;BME280;56589;51.992;5.924;2022-09-12T02:16:57;101110.94;;;13.58;76.68
69402;BME280;56589;51.992;5.924;2022-09-12T02:19:28;101112.72;;;13.58;76.47
69402;BME280;56589;51.992;5.924;2022-09-12T02:22:01;101112.00;;;13.56;76.43
69402;BME280;56589;51.992;5.924;2022-09-12T02:24:32;101118.13;;;13.56;76.62
69402;BME280;56589;51.992;5.924;2022-09-12T02:27:05;101113.81;;;13.55;76.74
69402;BME280;56589;51.992;5.924;2022-09-12T02:29:36;101111.16;;;13.55;77.15
69402;BME280;56589;51.992;5.924;2022-09-12T02:32:13;101113.81;;;13.55;76.95
69402;BME280;56589;51.992;5.924;2022-09-12T02:34:53;101113.06;;;13.53;76.85
69402;BME280;56589;51.992;5.924;2022-09-12T02:37:31;101122.75;;;13.52;76.51
69402;BME280;56589;51.992;5.924;2022-09-12T02:40:10;101117.50;;;13.52;76.63
69402;BME280;56589;51.992;5.924;2022-09-12T02:42:37;101113.06;;;13.53;76.71
69402;BME280;56589;51.992;5.924;2022-09-12T02:45:03;101108.72;;;13.52;76.83
69402;BME280;56589;51.992;5.924;2022-09-12T02:47:37;101111.50;;;13.50;77.11
69402;BME280;56589;51.992;5.924;2022-09-12T02:50:08;101110.72;;;13.48;77.18
69402;BME280;56589;51.992;5.924;2022-09-12T02:52:35;101103.97;;;13.44;77.50
69402;BME280;56589;51.992;5.924;2022-09-12T02:55:01;101105.88;;;13.42;77.32
69402;BME280;56589;51.992;5.924;2022-09-12T02:57:30;101099.75;;;13.42;77.28
69402;BME280;56589;51.992;5.924;2022-09-12T02:59:58;101104.31;;;13.40;77.50
69402;BME280;56589;51.992;5.924;2022-09-12T03:02:39;101105.13;;;13.40;77.76
69402;BME280;56589;51.992;5.924;2022-09-12T03:05:24;101097.22;;;13.40;77.59
69402;BME280;56589;51.992;5.924;2022-09-12T03:08:19;101095.53;;;13.39;77.87
69402;BME280;56589;51.992;5.924;2022-09-12T03:11:10;101093.03;;;13.38;77.40
69402;BME280;56589;51.992;5.924;2022-09-12T03:13:54;101094.91;;;13.36;77.80
69402;BME280;56589;51.992;5.924;2022-09-12T03:16:34;101085.31;;;13.35;77.58
69402;BME280;56589;51.992;5.924;2022-09-12T03:19:19;101077.63;;;13.32;77.66
69402;BME280;56589;51.992;5.924;2022-09-12T03:21:57;101083.13;;;13.29;77.81
69402;BME280;56589;51.992;5.924;2022-09-12T03:24:31;101078.06;;;13.25;77.68
69402;BME280;56589;51.992;5.924;2022-09-12T03:27:04;101074.59;;;13.25;77.42
69402;BME280;56589;51.992;5.924;2022-09-12T03:29:35;101080.72;;;13.25;77.59
69402;BME280;56589;51.992;5.924;2022-09-12T03:32:03;101084.06;;;13.28;77.62
69402;BME280;56589;51.992;5.924;2022-09-12T03:34:31;101083.13;;;13.29;77.82
69402;BME280;56589;51.992;5.924;2022-09-12T03:36:57;101082.91;;;13.32;77.35
69402;BME280;56589;51.992;5.924;2022-09-12T03:39:23;101073.31;;;13.31;77.21
69402;BME280;56589;51.992;5.924;2022-09-12T03:41:50;101078.47;;;13.32;77.29
69402;BME280;56589;51.992;5.924;2022-09-12T03:44:16;101067.94;;;13.32;77.49
69402;BME280;56589;51.992;5.924;2022-09-12T03:46:42;101070.69;;;13.31;77.75
69402;BME280;56589;51.992;5.924;2022-09-12T03:49:08;101066.44;;;13.28;77.42
69402;BME280;56589;51.992;5.924;2022-09-12T03:51:37;101071.72;;;13.28;78.04
69402;BME280;56589;51.992;5.924;2022-09-12T03:54:03;101064.78;;;13.27;77.78
69402;BME280;56589;51.992;5.924;2022-09-12T03:56:30;101065.59;;;13.28;77.55
69402;BME280;56589;51.992;5.924;2022-09-12T03:58:56;101067.28;;;13.29;77.97
69402;BME280;56589;51.992;5.924;2022-09-12T04:01:22;101070.88;;;13.28;78.07
69402;BME280;56589;51.992;5.924;2022-09-12T04:03:50;101067.41;;;13.27;77.80
69402;BME280;56589;51.992;5.924;2022-09-12T04:06:18;101071.00;;;13.26;77.54
69402;BME280;56589;51.992;5.924;2022-09-12T04:08:50;101072.69;;;13.27;77.95
69402;BME280;56589;51.992;5.924;2022-09-12T04:11:19;101065.59;;;13.28;77.76
69402;BME280;56589;51.992;5.924;2022-09-12T04:13:46;101065.50;;;13.29;77.90
69402;BME280;56589;51.992;5.924;2022-09-12T04:16:14;101063.63;;;13.31;78.13
69402;BME280;56589;51.992;5.924;2022-09-12T04:18:40;101060.84;;;13.33;77.77
69402;BME280;56589;51.992;5.924;2022-09-12T04:21:07;101052.00;;;13.34;78.25
69402;BME280;56589;51.992;5.924;2022-09-12T04:23:35;101052.94;;;13.33;78.36
69402;BME280;56589;51.992;5.924;2022-09-12T04:26:04;101058.34;;;13.31;78.42
69402;BME280;56589;51.992;5.924;2022-09-12T04:28:30;101054.09;;;13.29;78.25
69402;BME280;56589;51.992;5.924;2022-09-12T04:31:00;101050.63;;;13.28;78.26
69402;BME280;56589;51.992;5.924;2022-09-12T04:33:26;101039.34;;;13.26;78.65
69402;BME280;56589;51.992;5.924;2022-09-12T04:35:52;101048.09;;;13.27;78.36
69402;BME280;56589;51.992;5.924;2022-09-12T04:38:18;101041.16;;;13.25;78.20
69402;BME280;56589;51.992;5.924;2022-09-12T04:40:43;101051.69;;;13.25;78.42
69402;BME280;56589;51.992;5.924;2022-09-12T04:43:12;101042.94;;;13.25;78.13
69402;BME280;56589;51.992;5.924;2022-09-12T04:45:37;101052.53;;;13.26;78.67
69402;BME280;56589;51.992;5.924;2022-09-12T04:48:03;101052.31;;;13.29;78.75
69402;BME280;56589;51.992;5.924;2022-09-12T04:50:29;101062.78;;;13.31;78.73
69402;BME280;56589;51.992;5.924;2022-09-12T04:52:55;101057.25;;;13.34;78.74
69402;BME280;56589;51.992;5.924;2022-09-12T04:55:21;101057.97;;;13.36;78.95
69402;BME280;56589;51.992;5.924;2022-09-12T04:57:47;101050.81;;;13.38;78.43
69402;BME280;56589;51.992;5.924;2022-09-12T05:00:15;101050.59;;;13.41;78.45
69402;BME280;56589;51.992;5.924;2022-09-12T05:02:42;101047.00;;;13.42;78.52
69402;BME280;56589;51.992;5.924;2022-09-12T05:05:09;101045.31;;;13.41;78.86
69402;BME280;56589;51.992;5.924;2022-09-12T05:07:35;101040.78;;;13.43;78.80
69402;BME280;56589;51.992;5.924;2022-09-12T05:10:01;101040.88;;;13.41;78.73
69402;BME280;56589;51.992;5.924;2022-09-12T05:12:28;101047.84;;;13.42;78.55
69402;BME280;56589;51.992;5.924;2022-09-12T05:14:54;101046.78;;;13.45;78.71
69402;BME280;56589;51.992;5.924;2022-09-12T05:17:23;101039.63;;;13.47;78.88
69402;BME280;56589;51.992;5.924;2022-09-12T05:19:48;101055.34;;;13.48;78.38
69402;BME280;56589;51.992;5.924;2022-09-12T05:22:14;101049.03;;;13.51;78.53
69402;BME280;56589;51.992;5.924;2022-09-12T05:24:40;101041.81;;;13.53;78.47
69402;BME280;56589;51.992;5.924;2022-09-12T05:27:05;101053.00;;;13.57;78.55
69402;BME280;56589;51.992;5.924;2022-09-12T05:29:31;101049.09;;;13.62;78.60
69402;BME280;56589;51.992;5.924;2022-09-12T05:31:57;101053.09;;;13.68;79.03
69402;BME280;56589;51.992;5.924;2022-09-12T05:34:25;101048.28;;;13.73;78.60
69402;BME280;56589;51.992;5.924;2022-09-12T05:36:51;101045.19;;;13.79;78.67
69402;BME280;56589;51.992;5.924;2022-09-12T05:39:17;101045.63;;;13.86;79.14
69402;BME280;56589;51.992;5.924;2022-09-12T05:41:42;101045.16;;;13.92;79.03
69402;BME280;56589;51.992;5.924;2022-09-12T05:44:11;101046.41;;;13.99;78.77
69402;BME280;56589;51.992;5.924;2022-09-12T05:46:39;101053.22;;;14.01;78.42
69402;BME280;56589;51.992;5.924;2022-09-12T05:49:07;101053.84;;;14.05;78.86
69402;BME280;56589;51.992;5.924;2022-09-12T05:51:39;101051.09;;;14.07;78.79
69402;BME280;56589;51.992;5.924;2022-09-12T05:54:09;101053.50;;;14.10;78.44
69402;BME280;56589;51.992;5.924;2022-09-12T05:56:38;101042.59;;;14.14;78.44
69402;BME280;56589;51.992;5.924;2022-09-12T05:59:06;101044.28;;;14.15;78.38
69402;BME280;56589;51.992;5.924;2022-09-12T06:01:35;101048.50;;;14.18;78.41
69402;BME280;56589;51.992;5.924;2022-09-12T06:04:03;101048.38;;;14.19;78.48
69402;BME280;56589;51.992;5.924;2022-09-12T06:06:33;101050.69;;;14.24;78.65
69402;BME280;56589;51.992;5.924;2022-09-12T06:09:04;101052.13;;;14.28;78.55
69402;BME280;56589;51.992;5.924;2022-09-12T06:11:32;101049.38;;;14.29;78.58
69402;BME280;56589;51.992;5.924;2022-09-12T06:13:59;101045.53;;;14.33;78.59
69402;BME280;56589;51.992;5.924;2022-09-12T06:16:27;101047.94;;;14.37;78.61
69402;BME280;56589;51.992;5.924;2022-09-12T06:18:55;101049.63;;;14.38;78.60
69402;BME280;56589;51.992;5.924;2022-09-12T06:21:23;101054.78;;;14.39;78.26
69402;BME280;56589;51.992;5.924;2022-09-12T06:23:53;101057.94;;;14.44;78.20
69402;BME280;56589;51.992;5.924;2022-09-12T06:26:19;101057.34;;;14.52;78.39
69402;BME280;56589;51.992;5.924;2022-09-12T06:28:46;101057.00;;;14.56;78.20
69402;BME280;56589;51.992;5.924;2022-09-12T06:31:14;101052.34;;;14.60;78.51
69402;BME280;56589;51.992;5.924;2022-09-12T06:33:43;101055.50;;;14.65;77.74
69402;BME280;56589;51.992;5.924;2022-09-12T06:36:11;101053.44;;;14.69;77.96
69402;BME280;56589;51.992;5.924;2022-09-12T06:38:39;101045.53;;;14.69;77.93
69402;BME280;56589;51.992;5.924;2022-09-12T06:41:09;101051.75;;;14.68;77.69
69402;BME280;56589;51.992;5.924;2022-09-12T06:43:36;101046.59;;;14.66;77.34
69402;BME280;56589;51.992;5.924;2022-09-12T06:46:03;101057.28;;;14.65;77.35
69402;BME280;56589;51.992;5.924;2022-09-12T06:48:29;101052.13;;;14.63;77.42
69402;BME280;56589;51.992;5.924;2022-09-12T06:50:56;101051.28;;;14.63;77.29
69402;BME280;56589;51.992;5.924;2022-09-12T06:53:22;101054.00;;;14.61;77.31
69402;BME280;56589;51.992;5.924;2022-09-12T06:55:54;101052.56;;;14.57;77.25
69402;BME280;56589;51.992;5.924;2022-09-12T06:58:23;101054.22;;;14.58;77.15
69402;BME280;56589;51.992;5.924;2022-09-12T07:00:50;101055.06;;;14.58;77.48
69402;BME280;56589;51.992;5.924;2022-09-12T07:03:15;101057.50;;;14.62;77.49
69402;BME280;56589;51.992;5.924;2022-09-12T07:05:41;101056.34;;;14.66;77.74
69402;BME280;56589;51.992;5.924;2022-09-12T07:08:07;101054.66;;;14.76;77.47
69402;BME280;56589;51.992;5.924;2022-09-12T07:10:33;101057.66;;;14.94;78.45
69402;BME280;56589;51.992;5.924;2022-09-12T07:12:58;101047.44;;;15.23;78.00
69402;BME280;56589;51.992;5.924;2022-09-12T07:15:27;101051.25;;;15.52;77.56
69402;BME280;56589;51.992;5.924;2022-09-12T07:17:53;101044.34;;;15.83;76.97
69402;BME280;56589;51.992;5.924;2022-09-12T07:20:18;101039.41;;;16.11;76.54
69402;BME280;56589;51.992;5.924;2022-09-12T07:22:44;101041.34;;;16.30;76.00
69402;BME280;56589;51.992;5.924;2022-09-12T07:25:10;101039.34;;;16.43;75.30
69402;BME280;56589;51.992;5.924;2022-09-12T07:27:36;101032.69;;;16.49;74.92
69402;BME280;56589;51.992;5.924;2022-09-12T07:30:02;101033.78;;;16.46;74.62
69402;BME280;56589;51.992;5.924;2022-09-12T07:32:31;101040.31;;;16.42;74.47
69402;BME280;56589;51.992;5.924;2022-09-12T07:34:56;101031.22;;;16.35;74.19
69402;BME280;56589;51.992;5.924;2022-09-12T07:37:22;101028.81;;;16.32;74.41
69402;BME280;56589;51.992;5.924;2022-09-12T07:39:48;101037.47;;;16.34;73.91
69402;BME280;56589;51.992;5.924;2022-09-12T07:42:14;101034.69;;;16.35;74.08
69402;BME280;56589;51.992;5.924;2022-09-12T07:44:40;101039.28;;;16.54;74.55
69402;BME280;56589;51.992;5.924;2022-09-12T07:47:06;101039.16;;;16.77;74.04
69402;BME280;56589;51.992;5.924;2022-09-12T07:49:34;101041.75;;;16.97;73.91
69402;BME280;56589;51.992;5.924;2022-09-12T07:52:00;101040.97;;;17.16;73.27
69402;BME280;56589;51.992;5.924;2022-09-12T07:54:26;101043.97;;;17.33;72.74
69402;BME280;56589;51.992;5.924;2022-09-12T07:56:52;101048.06;;;17.46;72.30
69402;BME280;56589;51.992;5.924;2022-09-12T07:59:19;101046.28;;;17.57;72.10
69402;BME280;56589;51.992;5.924;2022-09-12T08:01:48;101047.78;;;17.59;71.24
69402;BME280;56589;51.992;5.924;2022-09-12T08:04:13;101046.97;;;17.59;71.30
69402;BME280;56589;51.992;5.924;2022-09-12T08:06:42;101038.44;;;17.55;71.28
69402;BME280;56589;51.992;5.924;2022-09-12T08:09:08;101044.44;;;17.57;70.99
69402;BME280;56589;51.992;5.924;2022-09-12T08:11:34;101042.47;;;17.59;71.01
69402;BME280;56589;51.992;5.924;2022-09-12T08:13:59;101045.44;;;17.66;71.08
69402;BME280;56589;51.992;5.924;2022-09-12T08:16:28;101044.66;;;17.75;70.37
69402;BME280;56589;51.992;5.924;2022-09-12T08:18:55;101049.25;;;17.83;70.44
69402;BME280;56589;51.992;5.924;2022-09-12T08:21:23;101055.69;;;17.90;70.39
69402;BME280;56589;51.992;5.924;2022-09-12T08:23:54;101054.03;;;17.98;69.69
69402;BME280;56589;51.992;5.924;2022-09-12T08:26:22;101054.31;;;18.05;69.40
69402;BME280;56589;51.992;5.924;2022-09-12T08:28:48;101050.41;;;18.09;69.46
69402;BME280;56589;51.992;5.924;2022-09-12T08:31:16;101056.84;;;18.16;69.10
69402;BME280;56589;51.992;5.924;2022-09-12T08:33:44;101055.69;;;18.19;69.10
69402;BME280;56589;51.992;5.924;2022-09-12T08:36:12;101050.13;;;18.22;69.10
69402;BME280;56589;51.992;5.924;2022-09-12T08:38:41;101053.47;;;18.24;68.90
69402;BME280;56589;51.992;5.924;2022-09-12T08:41:20;101049.41;;;18.29;68.89
69402;BME280;56589;51.992;5.924;2022-09-12T08:43:58;101045.03;;;18.38;68.66
69402;BME280;56589;51.992;5.924;2022-09-12T08:46:40;101053.28;;;18.45;68.72
69402;BME280;56589;51.992;5.924;2022-09-12T08:49:23;101053.41;;;18.53;68.34
69402;BME280;56589;51.992;5.924;2022-09-12T08:51:53;101052.28;;;18.55;68.21
69402;BME280;56589;51.992;5.924;2022-09-12T08:54:24;101055.38;;;18.61;68.24
69402;BME280;56589;51.992;5.924;2022-09-12T08:56:59;101051.44;;;18.74;67.98
69402;BME280;56589;51.992;5.924;2022-09-12T08:59:32;101055.06;;;18.83;67.77
69402;BME280;56589;51.992;5.924;2022-09-12T09:02:01;101050.81;;;18.90;66.92
69402;BME280;56589;51.992;5.924;2022-09-12T09:04:36;101048.28;;;18.89;67.18
69402;BME280;56589;51.992;5.924;2022-09-12T09:07:27;101054.84;;;18.94;67.34
69402;BME280;56589;51.992;5.924;2022-09-12T09:10:22;101050.19;;;19.06;67.17
69402;BME280;56589;51.992;5.924;2022-09-12T09:13:07;101054.72;;;19.23;67.09
69402;BME280;56589;51.992;5.924;2022-09-12T09:15:53;101050.59;;;19.38;66.73
69402;BME280;56589;51.992;5.924;2022-09-12T09:18:30;101054.75;;;19.51;66.37
69402;BME280;56589;51.992;5.924;2022-09-12T09:21:01;101047.53;;;19.61;66.18
69402;BME280;56589;51.992;5.924;2022-09-12T09:23:35;101036.66;;;19.72;65.37
69402;BME280;56589;51.992;5.924;2022-09-12T09:26:10;101042.75;;;19.82;65.02
69402;BME280;56589;51.992;5.924;2022-09-12T09:28:46;101044.88;;;19.97;65.02
69402;BME280;56589;51.992;5.924;2022-09-12T09:31:19;101038.31;;;20.09;65.07
69402;BME280;56589;51.992;5.924;2022-09-12T09:33:48;101027.59;;;20.18;64.37
69402;BME280;56589;51.992;5.924;2022-09-12T09:36:20;101020.81;;;20.24;64.28
69402;BME280;56589;51.992;5.924;2022-09-12T09:39:04;101027.88;;;20.33;63.97
69402;BME280;56589;51.992;5.924;2022-09-12T09:41:43;101022.28;;;20.44;63.79
69402;BME280;56589;51.992;5.924;2022-09-12T09:44:18;101023.03;;;20.55;63.95
69402;BME280;56589;51.992;5.924;2022-09-12T09:46:44;101022.06;;;20.64;63.47
69402;BME280;56589;51.992;5.924;2022-09-12T09:49:11;101020.16;;;20.74;63.27
69402;BME280;56589;51.992;5.924;2022-09-12T09:51:40;101018.34;;;20.83;62.40
69402;BME280;56589;51.992;5.924;2022-09-12T09:54:15;101020.22;;;20.90;62.44
69402;BME280;56589;51.992;5.924;2022-09-12T09:56:45;101013.59;;;21.03;62.36
69402;BME280;56589;51.992;5.924;2022-09-12T09:59:14;101013.03;;;21.17;62.00
69402;BME280;56589;51.992;5.924;2022-09-12T10:01:51;101020.41;;;21.31;61.12
69402;BME280;56589;51.992;5.924;2022-09-12T10:04:20;101020.41;;;21.39;60.90
69402;BME280;56589;51.992;5.924;2022-09-12T10:06:50;101014.13;;;21.48;61.34
69402;BME280;56589;51.992;5.924;2022-09-12T10:09:20;101007.09;;;21.64;61.04
69402;BME280;56589;51.992;5.924;2022-09-12T10:11:49;101005.66;;;21.77;60.30
69402;BME280;56589;51.992;5.924;2022-09-12T10:14:31;101002.66;;;21.89;59.79
69402;BME280;56589;51.992;5.924;2022-09-12T10:16:58;100994.13;;;22.01;60.22
69402;BME280;56589;51.992;5.924;2022-09-12T10:19:33;100993.66;;;22.14;59.26
69402;BME280;56589;51.992;5.924;2022-09-12T10:22:01;100990.13;;;22.22;58.99
69402;BME280;56589;51.992;5.924;2022-09-12T10:24:32;100991.44;;;22.34;58.69
69402;BME280;56589;51.992;5.924;2022-09-12T10:27:07;100985.56;;;22.47;58.39
69402;BME280;56589;51.992;5.924;2022-09-12T10:29:43;100983.50;;;22.57;58.15
69402;BME280;56589;51.992;5.924;2022-09-12T10:32:20;100975.97;;;22.69;57.25
69402;BME280;56589;51.992;5.924;2022-09-12T10:34:53;100972.59;;;22.75;56.49
69402;BME280;56589;51.992;5.924;2022-09-12T10:37:27;100966.56;;;22.81;56.16
69402;BME280;56589;51.992;5.924;2022-09-12T10:39:57;100965.72;;;22.89;55.83
69402;BME280;56589;51.992;5.924;2022-09-12T10:42:43;100968.84;;;23.00;54.38
69402;BME280;56589;51.992;5.924;2022-09-12T10:45:21;100974.47;;;23.05;54.13
69402;BME280;56589;51.992;5.924;2022-09-12T10:47:50;100969.56;;;23.17;54.42
69402;BME280;56589;51.992;5.924;2022-09-12T10:50:22;100968.34;;;23.28;53.91
69402;BME280;56589;51.992;5.924;2022-09-12T10:52:51;100958.28;;;23.38;53.45
69402;BME280;56589;51.992;5.924;2022-09-12T10:55:20;100965.03;;;23.49;53.12
69402;BME280;56589;51.992;5.924;2022-09-12T10:58:01;100954.19;;;23.65;52.58
69402;BME280;56589;51.992;5.924;2022-09-12T11:00:40;100960.81;;;23.77;52.29
69402;BME280;56589;51.992;5.924;2022-09-12T11:03:39;100952.16;;;23.90;50.93
69402;BME280;56589;51.992;5.924;2022-09-12T11:06:31;100944.03;;;23.98;51.17
69402;BME280;56589;51.992;5.924;2022-09-12T11:09:09;100943.16;;;24.06;51.24
69402;BME280;56589;51.992;5.924;2022-09-12T11:11:54;100944.09;;;24.13;50.71
69402;BME280;56589;51.992;5.924;2022-09-12T11:14:39;100937.50;;;24.15;50.32
69402;BME280;56589;51.992;5.924;2022-09-12T11:17:27;100936.78;;;24.22;50.43
69402;BME280;56589;51.992;5.924;2022-09-12T11:20:19;100926.34;;;24.27;49.73
69402;BME280;56589;51.992;5.924;2022-09-12T11:23:22;100929.50;;;24.30;48.91
69402;BME280;56589;51.992;5.924;2022-09-12T11:26:24;100927.53;;;24.39;49.09
69402;BME280;56589;51.992;5.924;2022-09-12T11:29:10;100913.09;;;24.40;49.54
69402;BME280;56589;51.992;5.924;2022-09-12T11:32:05;100921.31;;;24.53;47.87
69402;BME280;56589;51.992;5.924;2022-09-12T11:34:54;100925.94;;;24.59;48.24
69402;BME280;56589;51.992;5.924;2022-09-12T11:37:41;100923.81;;;24.69;48.31
69402;BME280;56589;51.992;5.924;2022-09-12T11:40:27;100920.06;;;24.79;48.04
69402;BME280;56589;51.992;5.924;2022-09-12T11:43:00;100920.50;;;24.82;47.73
69402;BME280;56589;51.992;5.924;2022-09-12T11:45:40;100925.94;;;24.89;48.08
69402;BME280;56589;51.992;5.924;2022-09-12T11:48:15;100926.84;;;24.96;47.33
69402;BME280;56589;51.992;5.924;2022-09-12T11:50:53;100927.94;;;25.02;46.89
69402;BME280;56589;51.992;5.924;2022-09-12T11:53:24;100937.09;;;25.07;46.77
69402;BME280;56589;51.992;5.924;2022-09-12T11:56:00;100937.84;;;25.16;46.70
69402;BME280;56589;51.992;5.924;2022-09-12T11:58:32;100929.84;;;25.22;46.76
69402;BME280;56589;51.992;5.924;2022-09-12T12:01:05;100931.38;;;25.32;45.87
69402;BME280;56589;51.992;5.924;2022-09-12T12:03:40;100929.78;;;25.37;45.87
69402;BME280;56589;51.992;5.924;2022-09-12T12:06:16;100926.56;;;25.42;45.13
69402;BME280;56589;51.992;5.924;2022-09-12T12:08:46;100916.22;;;25.45;45.35
69402;BME280;56589;51.992;5.924;2022-09-12T12:11:14;100915.03;;;25.48;45.31
69402;BME280;56589;51.992;5.924;2022-09-12T12:13:54;100920.72;;;25.60;45.64
69402;BME280;56589;51.992;5.924;2022-09-12T12:16:25;100928.00;;;25.66;45.50
69402;BME280;56589;51.992;5.924;2022-09-12T12:18:54;100920.53;;;25.61;45.06
69402;BME280;56589;51.992;5.924;2022-09-12T12:21:37;100915.53;;;25.58;44.91
69402;BME280;56589;51.992;5.924;2022-09-12T12:24:18;100916.38;;;25.59;44.86
69402;BME280;56589;51.992;5.924;2022-09-12T12:26:57;100910.78;;;25.60;45.26
69402;BME280;56589;51.992;5.924;2022-09-12T12:29:36;100909.81;;;25.68;44.69
69402;BME280;56589;51.992;5.924;2022-09-12T12:32:30;100898.63;;;25.64;44.26
69402;BME280;56589;51.992;5.924;2022-09-12T12:38:26;100889.13;;;25.68;43.85
69402;BME280;56589;51.992;5.924;2022-09-12T12:47:16;100886.78;;;25.37;43.00
69402;BME280;56589;51.992;5.924;2022-09-12T12:49:50;100884.66;;;25.11;43.40
69402;BME280;56589;51.992;5.924;2022-09-12T12:52:18;100883.22;;;24.94;43.46
69402;BME280;56589;51.992;5.924;2022-09-12T12:54:50;100882.31;;;24.87;44.45
69402;BME280;56589;51.992;5.924;2022-09-12T12:57:30;100877.94;;;25.01;44.30
69402;BME280;56589;51.992;5.924;2022-09-12T13:00:21;100875.97;;;25.09;44.82
69402;BME280;56589;51.992;5.924;2022-09-12T13:02:56;100873.41;;;25.22;44.55
69402;BME280;56589;51.992;5.924;2022-09-12T13:05:26;100872.25;;;25.32;43.68
69402;BME280;56589;51.992;5.924;2022-09-12T13:07:58;100863.69;;;25.43;43.75
69402;BME280;56589;51.992;5.924;2022-09-12T13:10:31;100874.97;;;25.53;43.49
69402;BME280;56589;51.992;5.924;2022-09-12T13:13:03;100858.63;;;25.55;43.51
69402;BME280;56589;51.992;5.924;2022-09-12T13:15:47;100856.38;;;25.58;43.77
69402;BME280;56589;51.992;5.924;2022-09-12T13:18:20;100847.53;;;25.64;43.02
69402;BME280;56589;51.992;5.924;2022-09-12T13:20:53;100846.50;;;25.65;43.26
69402;BME280;56589;51.992;5.924;2022-09-12T13:23:30;100847.38;;;25.72;43.15
69402;BME280;56589;51.992;5.924;2022-09-12T13:25:57;100844.09;;;25.77;42.87
69402;BME280;56589;51.992;5.924;2022-09-12T13:28:28;100838.53;;;25.78;42.41
69402;BME280;56589;51.992;5.924;2022-09-12T13:30:58;100838.31;;;25.80;42.21